sensor_id;sensor_type;location;lat;lon;timestamp;P1;durP1;ratioP1;P2;durP2;ratioP2
28447;SDS011;15675;52.870;-1.416;2022-09-09T00:02:18;15.57;;;7.20;;
28447;SDS011;15675;52.870;-1.416;2022-09-09T00:15:52;21.00;;;9.90;;
28447;SDS011;15675;52.870;-1.416;2022-09-09T00:23:28;26.50;;;8.07;;
28447;SDS011;15675;52.870;-1.416;2022-09-09T00:26:09;19.55;;;8.18;;
28447;SDS011;15675;52.870;-1.416;2022-09-09T00:28:58;16.60;;;9.23;;
28447;SDS011;15675;52.870;-1.416;2022-09-09T00:31:31;14.05;;;8.40;;
28447;SDS011;15675;52.870;-1.416;2022-09-09T00:36:47;15.93;;;8.38;;
28447;SDS011;15675;52.870;-1.416;2022-09-09T00:44:38;16.15;;;8.93;;
28447;SDS011;15675;52.870;-1.416;2022-09-09T00:47:17;23.05;;;11.40;;
28447;SDS011;15675;52.870;-1.416;2022-09-09T00:53:33;20.98;;;10.15;;
28447;SDS011;15675;52.870;-1.416;2022-09-09T00:58:14;28.73;;;11.38;;
28447;SDS011;15675;52.870;-1.416;2022-09-09T01:08:43;23.85;;;10.98;;
28447;SDS011;15675;52.870;-1.416;2022-09-09T01:11:31;19.48;;;10.57;;
28447;SDS011;15675;52.870;-1.416;2022-09-09T01:14:20;19.33;;;10.45;;
28447;SDS011;15675;52.870;-1.416;2022-09-09T01:16:54;22.65;;;11.27;;
28447;SDS011;15675;52.870;-1.416;2022-09-09T01:19:33;22.13;;;10.57;;
28447;SDS011;15675;52.870;-1.416;2022-09-09T01:22:02;21.08;;;9.93;;
28447;SDS011;15675;52.870;-1.416;2022-09-09T01:24:40;24.10;;;10.20;;
28447;SDS011;15675;52.870;-1.416;2022-09-09T01:27:27;18.98;;;10.00;;
28447;SDS011;15675;52.870;-1.416;2022-09-09T01:29:53;20.38;;;10.52;;
28447;SDS011;15675;52.870;-1.416;2022-09-09T01:37:56;20.23;;;10.63;;
28447;SDS011;15675;52.870;-1.416;2022-09-09T01:40:21;26.50;;;11.27;;
28447;SDS011;15675;52.870;-1.416;2022-09-09T01:42:48;21.15;;;11.30;;
28447;SDS011;15675;52.870;-1.416;2022-09-09T01:45:14;22.70;;;10.60;;
28447;SDS011;15675;52.870;-1.416;2022-09-09T01:47:40;27.02;;;11.27;;
28447;SDS011;15675;52.870;-1.416;2022-09-09T01:50:07;22.15;;;11.43;;
28447;SDS011;15675;52.870;-1.416;2022-09-09T01:52:36;26.73;;;11.65;;
28447;SDS011;15675;52.870;-1.416;2022-09-09T01:55:03;30.52;;;11.07;;
28447;SDS011;15675;52.870;-1.416;2022-09-09T01:57:36;26.30;;;11.63;;
28447;SDS011;15675;52.870;-1.416;2022-09-09T02:00:11;31.63;;;15.35;;
28447;SDS011;15675;52.870;-1.416;2022-09-09T02:02:43;36.80;;;15.50;;
28447;SDS011;15675;52.870;-1.416;2022-09-09T02:08:10;34.70;;;16.67;;
28447;SDS011;15675;52.870;-1.416;2022-09-09T02:10:52;33.20;;;15.38;;
28447;SDS011;15675;52.870;-1.416;2022-09-09T02:13:23;31.45;;;15.40;;
28447;SDS011;15675;52.870;-1.416;2022-09-09T02:16:00;33.67;;;16.17;;
28447;SDS011;15675;52.870;-1.416;2022-09-09T02:18:56;40.90;;;16.20;;
28447;SDS011;15675;52.870;-1.416;2022-09-09T02:21:31;34.85;;;15.90;;
28447;SDS011;15675;52.870;-1.416;2022-09-09T02:24:00;39.05;;;16.55;;
28447;SDS011;15675;52.870;-1.416;2022-09-09T02:26:29;40.95;;;17.90;;
28447;SDS011;15675;52.870;-1.416;2022-09-09T02:28:59;38.00;;;16.88;;
28447;SDS011;15675;52.870;-1.416;2022-09-09T02:31:27;37.75;;;17.63;;
28447;SDS011;15675;52.870;-1.416;2022-09-09T02:33:54;31.67;;;15.80;;
28447;SDS011;15675;52.870;-1.416;2022-09-09T02:36:25;41.85;;;17.25;;
28447;SDS011;15675;52.870;-1.416;2022-09-09T02:38:54;30.52;;;14.38;;
28447;SDS011;15675;52.870;-1.416;2022-09-09T02:41:23;37.53;;;15.82;;
28447;SDS011;15675;52.870;-1.416;2022-09-09T02:43:53;39.92;;;18.20;;
28447;SDS011;15675;52.870;-1.416;2022-09-09T02:46:23;72.90;;;18.75;;
28447;SDS011;15675;52.870;-1.416;2022-09-09T02:49:03;289.58;;;21.25;;
28447;SDS011;15675;52.870;-1.416;2022-09-09T02:54:10;60.83;;;19.38;;
28447;SDS011;15675;52.870;-1.416;2022-09-09T02:56:44;46.47;;;20.75;;
28447;SDS011;15675;52.870;-1.416;2022-09-09T02:59:15;56.85;;;23.95;;
28447;SDS011;15675;52.870;-1.416;2022-09-09T03:01:41;52.03;;;21.55;;
28447;SDS011;15675;52.870;-1.416;2022-09-09T03:04:07;53.42;;;21.70;;
28447;SDS011;15675;52.870;-1.416;2022-09-09T03:06:32;49.38;;;21.20;;
28447;SDS011;15675;52.870;-1.416;2022-09-09T03:08:58;55.90;;;22.02;;
28447;SDS011;15675;52.870;-1.416;2022-09-09T03:11:26;61.08;;;23.77;;
28447;SDS011;15675;52.870;-1.416;2022-09-09T03:13:53;55.42;;;24.20;;
28447;SDS011;15675;52.870;-1.416;2022-09-09T03:16:19;54.88;;;24.70;;
28447;SDS011;15675;52.870;-1.416;2022-09-09T03:18:46;50.10;;;23.27;;
28447;SDS011;15675;52.870;-1.416;2022-09-09T03:21:12;55.63;;;24.05;;
28447;SDS011;15675;52.870;-1.416;2022-09-09T03:23:37;51.20;;;23.17;;
28447;SDS011;15675;52.870;-1.416;2022-09-09T03:26:03;54.83;;;24.00;;
28447;SDS011;15675;52.870;-1.416;2022-09-09T03:28:28;56.67;;;22.42;;
28447;SDS011;15675;52.870;-1.416;2022-09-09T03:31:02;42.28;;;19.77;;
28447;SDS011;15675;52.870;-1.416;2022-09-09T03:33:29;55.13;;;23.65;;
28447;SDS011;15675;52.870;-1.416;2022-09-09T03:35:56;47.83;;;19.45;;
28447;SDS011;15675;52.870;-1.416;2022-09-09T03:38:25;41.97;;;20.25;;
28447;SDS011;15675;52.870;-1.416;2022-09-09T03:40:51;51.58;;;21.80;;
28447;SDS011;15675;52.870;-1.416;2022-09-09T03:43:22;45.90;;;20.52;;
28447;SDS011;15675;52.870;-1.416;2022-09-09T03:45:52;34.92;;;16.95;;
28447;SDS011;15675;52.870;-1.416;2022-09-09T03:48:18;58.50;;;22.80;;
28447;SDS011;15675;52.870;-1.416;2022-09-09T03:50:45;51.90;;;22.13;;
28447;SDS011;15675;52.870;-1.416;2022-09-09T03:53:12;42.00;;;19.83;;
28447;SDS011;15675;52.870;-1.416;2022-09-09T03:55:37;48.20;;;21.38;;
28447;SDS011;15675;52.870;-1.416;2022-09-09T03:58:03;49.72;;;20.90;;
28447;SDS011;15675;52.870;-1.416;2022-09-09T04:00:29;50.67;;;21.77;;
28447;SDS011;15675;52.870;-1.416;2022-09-09T04:02:55;52.33;;;21.20;;
28447;SDS011;15675;52.870;-1.416;2022-09-09T04:05:22;51.60;;;22.67;;
28447;SDS011;15675;52.870;-1.416;2022-09-09T04:07:48;58.47;;;23.65;;
28447;SDS011;15675;52.870;-1.416;2022-09-09T04:10:13;52.50;;;23.10;;
28447;SDS011;15675;52.870;-1.416;2022-09-09T04:12:40;62.47;;;23.58;;
28447;SDS011;15675;52.870;-1.416;2022-09-09T04:15:06;52.92;;;22.45;;
28447;SDS011;15675;52.870;-1.416;2022-09-09T04:17:32;52.08;;;21.45;;
28447;SDS011;15675;52.870;-1.416;2022-09-09T04:19:58;45.45;;;20.20;;
28447;SDS011;15675;52.870;-1.416;2022-09-09T04:22:23;52.83;;;21.20;;
28447;SDS011;15675;52.870;-1.416;2022-09-09T04:24:49;55.60;;;21.40;;
28447;SDS011;15675;52.870;-1.416;2022-09-09T04:27:14;63.47;;;23.35;;
28447;SDS011;15675;52.870;-1.416;2022-09-09T04:29:40;66.43;;;25.02;;
28447;SDS011;15675;52.870;-1.416;2022-09-09T04:32:05;67.78;;;25.23;;
28447;SDS011;15675;52.870;-1.416;2022-09-09T04:34:31;70.32;;;25.63;;
28447;SDS011;15675;52.870;-1.416;2022-09-09T04:36:56;69.80;;;25.70;;
28447;SDS011;15675;52.870;-1.416;2022-09-09T04:39:22;76.72;;;25.73;;
28447;SDS011;15675;52.870;-1.416;2022-09-09T04:41:48;69.10;;;24.73;;
28447;SDS011;15675;52.870;-1.416;2022-09-09T04:44:13;78.57;;;25.75;;
28447;SDS011;15675;52.870;-1.416;2022-09-09T04:46:39;72.70;;;25.23;;
28447;SDS011;15675;52.870;-1.416;2022-09-09T04:49:06;75.15;;;26.95;;
28447;SDS011;15675;52.870;-1.416;2022-09-09T04:51:32;75.43;;;26.98;;
28447;SDS011;15675;52.870;-1.416;2022-09-09T04:53:57;79.82;;;26.92;;
28447;SDS011;15675;52.870;-1.416;2022-09-09T04:56:23;72.18;;;26.05;;
28447;SDS011;15675;52.870;-1.416;2022-09-09T04:58:52;77.05;;;26.30;;
28447;SDS011;15675;52.870;-1.416;2022-09-09T05:01:19;70.05;;;26.55;;
28447;SDS011;15675;52.870;-1.416;2022-09-09T05:03:47;78.57;;;27.95;;
28447;SDS011;15675;52.870;-1.416;2022-09-09T05:06:14;75.07;;;27.02;;
28447;SDS011;15675;52.870;-1.416;2022-09-09T05:08:41;74.85;;;27.33;;
28447;SDS011;15675;52.870;-1.416;2022-09-09T05:13:41;84.88;;;29.23;;
28447;SDS011;15675;52.870;-1.416;2022-09-09T05:16:07;85.97;;;28.95;;
28447;SDS011;15675;52.870;-1.416;2022-09-09T05:18:32;90.15;;;30.48;;
28447;SDS011;15675;52.870;-1.416;2022-09-09T05:21:00;95.28;;;28.83;;
28447;SDS011;15675;52.870;-1.416;2022-09-09T05:23:26;82.50;;;29.98;;
28447;SDS011;15675;52.870;-1.416;2022-09-09T05:25:56;84.10;;;29.48;;
28447;SDS011;15675;52.870;-1.416;2022-09-09T05:28:23;86.45;;;29.00;;
28447;SDS011;15675;52.870;-1.416;2022-09-09T05:30:55;85.82;;;29.15;;
28447;SDS011;15675;52.870;-1.416;2022-09-09T05:33:33;90.97;;;29.95;;
28447;SDS011;15675;52.870;-1.416;2022-09-09T05:36:09;87.68;;;30.15;;
28447;SDS011;15675;52.870;-1.416;2022-09-09T05:38:38;93.05;;;31.10;;
28447;SDS011;15675;52.870;-1.416;2022-09-09T05:41:04;90.45;;;33.13;;
28447;SDS011;15675;52.870;-1.416;2022-09-09T05:43:30;92.03;;;31.70;;
28447;SDS011;15675;52.870;-1.416;2022-09-09T05:48:45;94.05;;;31.58;;
28447;SDS011;15675;52.870;-1.416;2022-09-09T05:51:16;95.25;;;30.73;;
28447;SDS011;15675;52.870;-1.416;2022-09-09T05:53:46;90.45;;;31.77;;
28447;SDS011;15675;52.870;-1.416;2022-09-09T05:58:40;82.60;;;30.58;;
28447;SDS011;15675;52.870;-1.416;2022-09-09T06:03:51;84.55;;;30.60;;
28447;SDS011;15675;52.870;-1.416;2022-09-09T06:06:19;83.50;;;31.15;;
28447;SDS011;15675;52.870;-1.416;2022-09-09T06:08:51;83.97;;;31.33;;
28447;SDS011;15675;52.870;-1.416;2022-09-09T06:11:19;88.18;;;30.50;;
28447;SDS011;15675;52.870;-1.416;2022-09-09T06:13:46;87.57;;;30.70;;
28447;SDS011;15675;52.870;-1.416;2022-09-09T06:16:16;88.15;;;32.35;;
28447;SDS011;15675;52.870;-1.416;2022-09-09T06:18:43;89.32;;;31.05;;
28447;SDS011;15675;52.870;-1.416;2022-09-09T06:21:10;89.93;;;31.90;;
28447;SDS011;15675;52.870;-1.416;2022-09-09T06:23:39;74.70;;;29.50;;
28447;SDS011;15675;52.870;-1.416;2022-09-09T06:26:06;96.70;;;30.75;;
28447;SDS011;15675;52.870;-1.416;2022-09-09T06:28:35;85.20;;;30.25;;
28447;SDS011;15675;52.870;-1.416;2022-09-09T06:31:05;80.03;;;29.35;;
28447;SDS011;15675;52.870;-1.416;2022-09-09T06:33:36;78.07;;;30.02;;
28447;SDS011;15675;52.870;-1.416;2022-09-09T06:36:07;77.78;;;30.70;;
28447;SDS011;15675;52.870;-1.416;2022-09-09T06:38:37;73.75;;;29.63;;
28447;SDS011;15675;52.870;-1.416;2022-09-09T06:41:03;77.85;;;30.05;;
28447;SDS011;15675;52.870;-1.416;2022-09-09T06:43:30;68.45;;;28.63;;
28447;SDS011;15675;52.870;-1.416;2022-09-09T06:45:59;70.22;;;27.75;;
28447;SDS011;15675;52.870;-1.416;2022-09-09T06:48:45;74.22;;;28.52;;
28447;SDS011;15675;52.870;-1.416;2022-09-09T06:53:37;73.50;;;27.60;;
28447;SDS011;15675;52.870;-1.416;2022-09-09T06:58:35;65.72;;;27.02;;
28447;SDS011;15675;52.870;-1.416;2022-09-09T07:01:05;61.60;;;26.30;;
28447;SDS011;15675;52.870;-1.416;2022-09-09T07:03:32;65.75;;;26.60;;
28447;SDS011;15675;52.870;-1.416;2022-09-09T07:05:58;58.33;;;24.55;;
28447;SDS011;15675;52.870;-1.416;2022-09-09T07:08:25;64.15;;;26.67;;
28447;SDS011;15675;52.870;-1.416;2022-09-09T07:10:51;67.63;;;25.90;;
28447;SDS011;15675;52.870;-1.416;2022-09-09T07:13:25;64.35;;;25.35;;
28447;SDS011;15675;52.870;-1.416;2022-09-09T07:18:18;68.13;;;24.52;;
28447;SDS011;15675;52.870;-1.416;2022-09-09T07:20:54;65.28;;;25.65;;
28447;SDS011;15675;52.870;-1.416;2022-09-09T07:23:21;55.63;;;24.92;;
28447;SDS011;15675;52.870;-1.416;2022-09-09T07:25:47;55.75;;;25.27;;
28447;SDS011;15675;52.870;-1.416;2022-09-09T07:28:13;61.58;;;26.38;;
28447;SDS011;15675;52.870;-1.416;2022-09-09T07:30:39;59.42;;;24.52;;
28447;SDS011;15675;52.870;-1.416;2022-09-09T07:33:05;53.85;;;24.23;;
28447;SDS011;15675;52.870;-1.416;2022-09-09T07:35:31;60.90;;;25.90;;
28447;SDS011;15675;52.870;-1.416;2022-09-09T07:37:56;69.55;;;26.65;;
28447;SDS011;15675;52.870;-1.416;2022-09-09T07:40:23;56.83;;;25.08;;
28447;SDS011;15675;52.870;-1.416;2022-09-09T07:42:49;55.05;;;23.85;;
28447;SDS011;15675;52.870;-1.416;2022-09-09T07:45:15;54.38;;;25.13;;
28447;SDS011;15675;52.870;-1.416;2022-09-09T07:47:41;51.50;;;23.63;;
28447;SDS011;15675;52.870;-1.416;2022-09-09T07:50:08;53.70;;;23.88;;
28447;SDS011;15675;52.870;-1.416;2022-09-09T07:52:34;53.95;;;24.65;;
28447;SDS011;15675;52.870;-1.416;2022-09-09T07:55:00;50.38;;;24.20;;
28447;SDS011;15675;52.870;-1.416;2022-09-09T07:57:29;55.20;;;25.30;;
28447;SDS011;15675;52.870;-1.416;2022-09-09T07:59:56;52.63;;;23.60;;
28447;SDS011;15675;52.870;-1.416;2022-09-09T08:02:22;52.45;;;24.08;;
28447;SDS011;15675;52.870;-1.416;2022-09-09T08:04:53;48.70;;;23.95;;
28447;SDS011;15675;52.870;-1.416;2022-09-09T08:07:18;48.72;;;22.42;;
28447;SDS011;15675;52.870;-1.416;2022-09-09T08:09:44;47.80;;;23.63;;
28447;SDS011;15675;52.870;-1.416;2022-09-09T08:12:10;44.38;;;22.50;;
28447;SDS011;15675;52.870;-1.416;2022-09-09T08:14:38;55.08;;;22.85;;
28447;SDS011;15675;52.870;-1.416;2022-09-09T08:17:05;54.70;;;24.05;;
28447;SDS011;15675;52.870;-1.416;2022-09-09T08:19:30;46.33;;;22.90;;
28447;SDS011;15675;52.870;-1.416;2022-09-09T08:21:59;51.03;;;22.90;;
28447;SDS011;15675;52.870;-1.416;2022-09-09T08:24:24;45.30;;;22.38;;
28447;SDS011;15675;52.870;-1.416;2022-09-09T08:26:50;43.20;;;20.45;;
28447;SDS011;15675;52.870;-1.416;2022-09-09T08:29:15;39.40;;;19.88;;
28447;SDS011;15675;52.870;-1.416;2022-09-09T08:31:51;40.10;;;19.73;;
28447;SDS011;15675;52.870;-1.416;2022-09-09T08:34:19;41.00;;;20.17;;
28447;SDS011;15675;52.870;-1.416;2022-09-09T08:36:46;44.13;;;18.95;;
28447;SDS011;15675;52.870;-1.416;2022-09-09T08:39:13;35.25;;;18.50;;
28447;SDS011;15675;52.870;-1.416;2022-09-09T08:50:02;37.05;;;21.00;;
28447;SDS011;15675;52.870;-1.416;2022-09-09T08:58:50;38.35;;;19.58;;
28447;SDS011;15675;52.870;-1.416;2022-09-09T09:06:06;32.33;;;19.58;;
28447;SDS011;15675;52.870;-1.416;2022-09-09T09:11:23;29.67;;;17.48;;
28447;SDS011;15675;52.870;-1.416;2022-09-09T09:13:54;29.48;;;17.60;;
28447;SDS011;15675;52.870;-1.416;2022-09-09T09:18:57;28.30;;;17.67;;
28447;SDS011;15675;52.870;-1.416;2022-09-09T09:21:44;29.58;;;17.30;;
28447;SDS011;15675;52.870;-1.416;2022-09-09T09:24:25;30.92;;;17.77;;
28447;SDS011;15675;52.870;-1.416;2022-09-09T09:27:00;27.17;;;16.77;;
28447;SDS011;15675;52.870;-1.416;2022-09-09T09:29:37;28.98;;;17.23;;
28447;SDS011;15675;52.870;-1.416;2022-09-09T09:32:05;29.33;;;15.10;;
28447;SDS011;15675;52.870;-1.416;2022-09-09T09:34:35;26.77;;;15.57;;
28447;SDS011;15675;52.870;-1.416;2022-09-09T09:37:00;23.92;;;12.50;;
28447;SDS011;15675;52.870;-1.416;2022-09-09T09:39:30;23.80;;;13.27;;
28447;SDS011;15675;52.870;-1.416;2022-09-09T09:42:09;25.10;;;13.43;;
28447;SDS011;15675;52.870;-1.416;2022-09-09T09:44:39;25.05;;;15.27;;
28447;SDS011;15675;52.870;-1.416;2022-09-09T09:47:23;26.10;;;14.32;;
28447;SDS011;15675;52.870;-1.416;2022-09-09T09:49:52;24.42;;;14.05;;
28447;SDS011;15675;52.870;-1.416;2022-09-09T09:52:24;23.52;;;13.05;;
28447;SDS011;15675;52.870;-1.416;2022-09-09T09:54:55;25.40;;;12.85;;
28447;SDS011;15675;52.870;-1.416;2022-09-09T09:57:24;22.17;;;14.23;;
28447;SDS011;15675;52.870;-1.416;2022-09-09T10:02:37;21.13;;;13.40;;
28447;SDS011;15675;52.870;-1.416;2022-09-09T10:05:15;23.02;;;14.13;;
28447;SDS011;15675;52.870;-1.416;2022-09-09T10:07:43;21.85;;;11.95;;
28447;SDS011;15675;52.870;-1.416;2022-09-09T10:10:33;20.63;;;14.15;;
28447;SDS011;15675;52.870;-1.416;2022-09-09T10:13:10;20.08;;;11.95;;
28447;SDS011;15675;52.870;-1.416;2022-09-09T10:15:57;21.85;;;12.70;;
28447;SDS011;15675;52.870;-1.416;2022-09-09T10:18:37;26.60;;;13.02;;
28447;SDS011;15675;52.870;-1.416;2022-09-09T10:21:27;20.52;;;12.43;;
28447;SDS011;15675;52.870;-1.416;2022-09-09T10:24:11;22.17;;;12.63;;
28447;SDS011;15675;52.870;-1.416;2022-09-09T10:32:41;19.65;;;12.07;;
28447;SDS011;15675;52.870;-1.416;2022-09-09T10:35:11;18.67;;;10.73;;
28447;SDS011;15675;52.870;-1.416;2022-09-09T10:37:41;16.80;;;10.05;;
28447;SDS011;15675;52.870;-1.416;2022-09-09T10:51:21;10.50;;;6.93;;
28447;SDS011;15675;52.870;-1.416;2022-09-09T10:56:25;13.95;;;7.63;;
28447;SDS011;15675;52.870;-1.416;2022-09-09T11:01:39;18.35;;;7.63;;
28447;SDS011;15675;52.870;-1.416;2022-09-09T11:04:11;19.92;;;8.15;;
28447;SDS011;15675;52.870;-1.416;2022-09-09T11:06:50;16.88;;;9.10;;
28447;SDS011;15675;52.870;-1.416;2022-09-09T11:09:21;16.98;;;8.63;;
28447;SDS011;15675;52.870;-1.416;2022-09-09T11:11:53;16.05;;;7.07;;
28447;SDS011;15675;52.870;-1.416;2022-09-09T11:16:57;12.95;;;6.45;;
28447;SDS011;15675;52.870;-1.416;2022-09-09T11:19:39;14.43;;;6.68;;
28447;SDS011;15675;52.870;-1.416;2022-09-09T11:22:52;11.55;;;5.45;;
28447;SDS011;15675;52.870;-1.416;2022-09-09T11:24:53;11.88;;;5.63;;
28447;SDS011;15675;52.870;-1.416;2022-09-09T11:27:26;16.48;;;6.75;;
28447;SDS011;15675;52.870;-1.416;2022-09-09T11:29:57;16.67;;;7.28;;
28447;SDS011;15675;52.870;-1.416;2022-09-09T11:35:25;14.77;;;7.05;;
28447;SDS011;15675;52.870;-1.416;2022-09-09T11:38:15;12.88;;;6.93;;
28447;SDS011;15675;52.870;-1.416;2022-09-09T11:40:40;11.70;;;7.22;;
28447;SDS011;15675;52.870;-1.416;2022-09-09T11:43:24;11.10;;;6.63;;
28447;SDS011;15675;52.870;-1.416;2022-09-09T11:46:12;13.35;;;5.25;;
28447;SDS011;15675;52.870;-1.416;2022-09-09T11:48:44;10.82;;;5.75;;
28447;SDS011;15675;52.870;-1.416;2022-09-09T11:53:50;9.85;;;5.85;;
28447;SDS011;15675;52.870;-1.416;2022-09-09T11:56:28;11.50;;;6.82;;
28447;SDS011;15675;52.870;-1.416;2022-09-09T11:59:03;14.13;;;8.27;;
28447;SDS011;15675;52.870;-1.416;2022-09-09T12:01:37;14.38;;;7.45;;
28447;SDS011;15675;52.870;-1.416;2022-09-09T12:04:15;13.05;;;6.93;;
28447;SDS011;15675;52.870;-1.416;2022-09-09T12:06:52;11.48;;;5.28;;
28447;SDS011;15675;52.870;-1.416;2022-09-09T12:09:54;10.85;;;5.10;;
28447;SDS011;15675;52.870;-1.416;2022-09-09T12:12:30;10.48;;;4.90;;
28447;SDS011;15675;52.870;-1.416;2022-09-09T12:17:26;13.60;;;6.13;;
28447;SDS011;15675;52.870;-1.416;2022-09-09T12:20:30;10.77;;;6.35;;
28447;SDS011;15675;52.870;-1.416;2022-09-09T12:28:17;13.15;;;6.20;;
28447;SDS011;15675;52.870;-1.416;2022-09-09T12:33:49;11.25;;;7.72;;
28447;SDS011;15675;52.870;-1.416;2022-09-09T12:36:35;14.32;;;7.15;;
28447;SDS011;15675;52.870;-1.416;2022-09-09T12:42:02;4.65;;;3.10;;
28447;SDS011;15675;52.870;-1.416;2022-09-09T12:44:29;5.25;;;3.38;;
28447;SDS011;15675;52.870;-1.416;2022-09-09T12:46:55;10.52;;;4.70;;
28447;SDS011;15675;52.870;-1.416;2022-09-09T12:49:26;10.50;;;4.55;;
28447;SDS011;15675;52.870;-1.416;2022-09-09T12:52:04;10.27;;;4.75;;
28447;SDS011;15675;52.870;-1.416;2022-09-09T12:54:33;8.98;;;4.97;;
28447;SDS011;15675;52.870;-1.416;2022-09-09T12:57:00;11.35;;;5.30;;
28447;SDS011;15675;52.870;-1.416;2022-09-09T12:59:34;13.52;;;6.00;;
28447;SDS011;15675;52.870;-1.416;2022-09-09T13:02:14;10.48;;;5.50;;
28447;SDS011;15675;52.870;-1.416;2022-09-09T13:04:46;10.70;;;5.10;;
28447;SDS011;15675;52.870;-1.416;2022-09-09T13:07:13;11.43;;;5.18;;
28447;SDS011;15675;52.870;-1.416;2022-09-09T13:09:41;8.10;;;4.10;;
28447;SDS011;15675;52.870;-1.416;2022-09-09T13:12:09;6.82;;;3.92;;
28447;SDS011;15675;52.870;-1.416;2022-09-09T13:17:22;10.57;;;3.53;;
28447;SDS011;15675;52.870;-1.416;2022-09-09T13:19:54;9.88;;;3.05;;
28447;SDS011;15675;52.870;-1.416;2022-09-09T13:25:06;7.38;;;3.05;;
28447;SDS011;15675;52.870;-1.416;2022-09-09T13:27:51;7.28;;;3.10;;
28447;SDS011;15675;52.870;-1.416;2022-09-09T13:30:25;8.73;;;3.20;;
28447;SDS011;15675;52.870;-1.416;2022-09-09T13:35:31;7.22;;;4.65;;
28447;SDS011;15675;52.870;-1.416;2022-09-09T13:37:58;8.43;;;3.83;;
28447;SDS011;15675;52.870;-1.416;2022-09-09T13:40:32;6.75;;;2.88;;
28447;SDS011;15675;52.870;-1.416;2022-09-09T13:42:59;4.95;;;2.60;;
28447;SDS011;15675;52.870;-1.416;2022-09-09T13:45:25;5.22;;;3.20;;
28447;SDS011;15675;52.870;-1.416;2022-09-09T13:47:54;7.97;;;2.67;;
28447;SDS011;15675;52.870;-1.416;2022-09-09T13:50:22;4.50;;;2.85;;
28447;SDS011;15675;52.870;-1.416;2022-09-09T13:52:53;6.90;;;2.85;;
28447;SDS011;15675;52.870;-1.416;2022-09-09T13:55:21;7.75;;;2.65;;
28447;SDS011;15675;52.870;-1.416;2022-09-09T14:00:25;3.67;;;1.05;;
28447;SDS011;15675;52.870;-1.416;2022-09-09T14:02:51;1.95;;;0.80;;
28447;SDS011;15675;52.870;-1.416;2022-09-09T14:05:17;2.08;;;0.70;;
28447;SDS011;15675;52.870;-1.416;2022-09-09T14:07:43;4.20;;;1.00;;
28447;SDS011;15675;52.870;-1.416;2022-09-09T14:10:10;6.53;;;0.98;;
28447;SDS011;15675;52.870;-1.416;2022-09-09T14:12:37;4.22;;;1.23;;
28447;SDS011;15675;52.870;-1.416;2022-09-09T14:15:03;5.80;;;1.17;;
28447;SDS011;15675;52.870;-1.416;2022-09-09T14:17:30;7.53;;;1.20;;
28447;SDS011;15675;52.870;-1.416;2022-09-09T14:19:56;5.93;;;1.10;;
28447;SDS011;15675;52.870;-1.416;2022-09-09T14:22:22;2.70;;;1.20;;
28447;SDS011;15675;52.870;-1.416;2022-09-09T14:24:48;6.75;;;1.70;;
28447;SDS011;15675;52.870;-1.416;2022-09-09T14:27:16;6.55;;;1.17;;
28447;SDS011;15675;52.870;-1.416;2022-09-09T14:29:43;4.28;;;1.77;;
28447;SDS011;15675;52.870;-1.416;2022-09-09T14:32:09;6.28;;;1.80;;
28447;SDS011;15675;52.870;-1.416;2022-09-09T14:34:35;5.80;;;1.52;;
28447;SDS011;15675;52.870;-1.416;2022-09-09T14:37:01;7.50;;;1.60;;
28447;SDS011;15675;52.870;-1.416;2022-09-09T14:39:27;4.93;;;1.60;;
28447;SDS011;15675;52.870;-1.416;2022-09-09T14:41:52;5.43;;;1.75;;
28447;SDS011;15675;52.870;-1.416;2022-09-09T14:44:18;5.85;;;2.05;;
28447;SDS011;15675;52.870;-1.416;2022-09-09T14:46:44;8.40;;;2.85;;
28447;SDS011;15675;52.870;-1.416;2022-09-09T14:49:09;8.63;;;3.00;;
28447;SDS011;15675;52.870;-1.416;2022-09-09T14:51:38;7.18;;;2.28;;
28447;SDS011;15675;52.870;-1.416;2022-09-09T14:54:04;9.95;;;2.60;;
28447;SDS011;15675;52.870;-1.416;2022-09-09T14:56:31;6.13;;;2.40;;
28447;SDS011;15675;52.870;-1.416;2022-09-09T14:58:59;6.40;;;2.33;;
28447;SDS011;15675;52.870;-1.416;2022-09-09T15:01:28;7.93;;;2.63;;
28447;SDS011;15675;52.870;-1.416;2022-09-09T15:03:56;13.15;;;4.07;;
28447;SDS011;15675;52.870;-1.416;2022-09-09T15:06:23;11.02;;;4.25;;
28447;SDS011;15675;52.870;-1.416;2022-09-09T15:08:51;5.93;;;2.08;;
28447;SDS011;15675;52.870;-1.416;2022-09-09T15:11:18;5.90;;;1.90;;
28447;SDS011;15675;52.870;-1.416;2022-09-09T15:13:45;4.10;;;1.65;;
28447;SDS011;15675;52.870;-1.416;2022-09-09T15:16:13;6.60;;;1.67;;
28447;SDS011;15675;52.870;-1.416;2022-09-09T15:18:40;6.13;;;1.75;;
28447;SDS011;15675;52.870;-1.416;2022-09-09T15:21:10;6.47;;;2.88;;
28447;SDS011;15675;52.870;-1.416;2022-09-09T15:23:40;4.00;;;2.80;;
28447;SDS011;15675;52.870;-1.416;2022-09-09T15:26:06;5.88;;;3.60;;
28447;SDS011;15675;52.870;-1.416;2022-09-09T15:28:33;6.75;;;3.95;;
28447;SDS011;15675;52.870;-1.416;2022-09-09T15:31:22;4.10;;;2.13;;
28447;SDS011;15675;52.870;-1.416;2022-09-09T15:33:50;5.30;;;1.70;;
28447;SDS011;15675;52.870;-1.416;2022-09-09T15:36:33;4.03;;;1.30;;
28447;SDS011;15675;52.870;-1.416;2022-09-09T15:39:00;2.25;;;1.10;;
28447;SDS011;15675;52.870;-1.416;2022-09-09T15:41:27;4.20;;;1.25;;
28447;SDS011;15675;52.870;-1.416;2022-09-09T15:43:54;4.70;;;1.08;;
28447;SDS011;15675;52.870;-1.416;2022-09-09T15:46:29;3.85;;;1.00;;
28447;SDS011;15675;52.870;-1.416;2022-09-09T15:49:02;2.65;;;1.25;;
28447;SDS011;15675;52.870;-1.416;2022-09-09T15:51:28;3.25;;;1.15;;
28447;SDS011;15675;52.870;-1.416;2022-09-09T15:53:54;6.15;;;1.13;;
28447;SDS011;15675;52.870;-1.416;2022-09-09T15:56:21;9.30;;;1.30;;
28447;SDS011;15675;52.870;-1.416;2022-09-09T15:58:48;4.93;;;1.25;;
28447;SDS011;15675;52.870;-1.416;2022-09-09T16:01:13;4.22;;;1.27;;
28447;SDS011;15675;52.870;-1.416;2022-09-09T16:03:41;3.22;;;1.40;;
28447;SDS011;15675;52.870;-1.416;2022-09-09T16:06:07;3.08;;;1.00;;
28447;SDS011;15675;52.870;-1.416;2022-09-09T16:08:38;2.85;;;1.00;;
28447;SDS011;15675;52.870;-1.416;2022-09-09T16:11:06;4.75;;;1.60;;
28447;SDS011;15675;52.870;-1.416;2022-09-09T16:13:40;4.45;;;1.55;;
28447;SDS011;15675;52.870;-1.416;2022-09-09T16:16:13;2.97;;;1.50;;
28447;SDS011;15675;52.870;-1.416;2022-09-09T16:18:40;4.38;;;1.55;;
28447;SDS011;15675;52.870;-1.416;2022-09-09T16:21:14;4.55;;;1.67;;
28447;SDS011;15675;52.870;-1.416;2022-09-09T16:23:42;6.25;;;1.55;;
28447;SDS011;15675;52.870;-1.416;2022-09-09T16:26:12;5.53;;;1.70;;
28447;SDS011;15675;52.870;-1.416;2022-09-09T16:28:40;9.25;;;1.85;;
28447;SDS011;15675;52.870;-1.416;2022-09-09T16:31:06;3.05;;;1.55;;
28447;SDS011;15675;52.870;-1.416;2022-09-09T16:33:33;3.42;;;1.60;;
28447;SDS011;15675;52.870;-1.416;2022-09-09T16:36:04;2.75;;;1.50;;
28447;SDS011;15675;52.870;-1.416;2022-09-09T16:38:30;7.38;;;1.60;;
28447;SDS011;15675;52.870;-1.416;2022-09-09T16:40:59;4.05;;;1.02;;
28447;SDS011;15675;52.870;-1.416;2022-09-09T16:43:25;2.08;;;0.63;;
28447;SDS011;15675;52.870;-1.416;2022-09-09T16:45:51;3.50;;;0.93;;
28447;SDS011;15675;52.870;-1.416;2022-09-09T16:48:16;17.33;;;1.90;;
28447;SDS011;15675;52.870;-1.416;2022-09-09T16:50:42;5.72;;;1.02;;
28447;SDS011;15675;52.870;-1.416;2022-09-09T16:53:07;7.45;;;0.80;;
28447;SDS011;15675;52.870;-1.416;2022-09-09T16:55:37;5.75;;;1.38;;
28447;SDS011;15675;52.870;-1.416;2022-09-09T16:58:04;3.70;;;0.63;;
28447;SDS011;15675;52.870;-1.416;2022-09-09T17:00:30;1.75;;;0.60;;
28447;SDS011;15675;52.870;-1.416;2022-09-09T17:02:55;1.35;;;0.50;;
28447;SDS011;15675;52.870;-1.416;2022-09-09T17:05:21;1.40;;;0.47;;